createdAt,value
2022-11-12T00:01:11.841Z,99875.50
2022-11-12T00:06:32.071Z,99865.94
2022-11-12T00:11:52.687Z,99870.06
2022-11-12T00:17:13.063Z,99865.84
2022-11-12T00:22:34.584Z,99857.94
2022-11-12T00:27:55.062Z,99872.31
2022-11-12T00:33:15.144Z,99870.44
2022-11-12T00:38:35.468Z,99870.44
2022-11-12T00:43:55.664Z,99865.25
2022-11-12T00:49:16.198Z,99855.81
2022-11-12T00:54:36.714Z,99856.41
2022-11-12T00:59:56.825Z,99862.88
2022-11-12T01:05:17.459Z,99857.66
2022-11-12T01:10:37.565Z,99859.78
2022-11-12T01:15:58.205Z,99863.22
2022-11-12T01:21:18.746Z,99862.84
2022-11-12T01:26:40.513Z,99866.50
2022-11-12T01:32:01.102Z,99862.75
2022-11-12T01:37:21.596Z,99855.66
2022-11-12T01:42:41.984Z,99856.03
2022-11-12T01:48:03.010Z,99864.03
2022-11-12T01:53:28.906Z,99850.50
2022-11-12T01:58:55.327Z,99857.22
2022-11-12T02:04:16.124Z,99856.59
2022-11-12T02:09:37.000Z,99850.97
2022-11-12T02:14:57.579Z,99846.81
2022-11-12T02:20:18.916Z,99841.56
2022-11-12T02:25:38.946Z,99848.50
2022-11-12T02:30:59.324Z,99845.53
2022-11-12T02:36:20.064Z,99849.41
2022-11-12T02:41:40.482Z,99849.28
2022-11-12T02:47:01.041Z,99843.94
2022-11-12T02:52:21.541Z,99848.19
2022-11-12T02:57:42.025Z,99851.03
2022-11-12T03:03:02.706Z,99858.38
2022-11-12T03:08:24.769Z,99858.28
2022-11-12T03:13:45.651Z,99861.50
2022-11-12T03:19:05.983Z,99852.00
2022-11-12T03:24:26.147Z,99852.84
2022-11-12T03:29:46.487Z,99855.44
2022-11-12T03:35:07.191Z,99866.66
2022-11-12T03:40:28.366Z,99860.53
2022-11-12T03:45:48.650Z,99862.88
2022-11-12T03:51:08.863Z,99858.28
2022-11-12T03:56:29.103Z,99860.53
2022-11-12T04:01:49.514Z,99863.59
2022-11-12T04:07:28.212Z,99870.91
2022-11-12T04:13:06.977Z,99853.94
2022-11-12T04:18:45.750Z,99860.53
2022-11-12T04:24:06.156Z,99857.22
2022-11-12T04:29:44.868Z,99859.56
2022-11-12T04:35:06.190Z,99866.78
2022-11-12T04:40:46.263Z,99859.13
2022-11-12T04:46:06.905Z,99859.13
2022-11-12T04:51:45.913Z,99864.53
2022-11-12T04:57:06.338Z,99874.31
2022-11-12T05:02:26.611Z,99873.09
2022-11-12T05:07:46.892Z,99876.28
2022-11-12T05:13:07.467Z,99882.13
2022-11-12T05:18:28.104Z,99880.94
2022-11-12T05:23:48.823Z,99884.09
2022-11-12T05:29:09.313Z,99890.56
2022-11-12T05:34:29.902Z,99895.47
2022-11-12T05:39:50.407Z,99896.84
2022-11-12T05:45:10.825Z,99885.28
2022-11-12T05:50:39.803Z,99903.84
2022-11-12T05:56:12.405Z,99904.28
2022-11-12T06:01:34.637Z,99907.22
2022-11-12T06:06:54.652Z,99905.78
2022-11-12T06:12:15.282Z,99910.47
2022-11-12T06:17:35.880Z,99911.59
2022-11-12T06:22:57.422Z,99913.59
2022-11-12T06:28:17.764Z,99922.28
2022-11-12T06:33:38.306Z,99916.19
2022-11-12T06:38:58.457Z,99916.56
2022-11-12T06:44:22.136Z,99918.59
2022-11-12T06:49:43.087Z,99923.84
2022-11-12T06:55:03.763Z,99923.06
2022-11-12T07:00:24.280Z,99924.78
2022-11-12T07:05:44.847Z,99931.75
2022-11-12T07:11:05.863Z,99925.78
2022-11-12T07:16:26.214Z,99919.94
2022-11-12T07:21:46.556Z,99920.78
2022-11-12T07:27:06.895Z,99916.56
2022-11-12T07:32:27.567Z,99928.03
2022-11-12T07:37:48.033Z,99918.97
2022-11-12T07:43:08.558Z,99924.03
2022-11-12T07:48:30.336Z,99929.09
2022-11-12T07:53:58.953Z,99923.34
2022-11-12T07:59:20.136Z,99918.38
2022-11-12T08:04:40.588Z,99912.97
2022-11-12T08:10:00.745Z,99915.69
2022-11-12T08:15:21.032Z,99917.56
2022-11-12T08:20:41.952Z,99918.63
2022-11-12T08:26:05.019Z,99923.09
2022-11-12T08:31:25.229Z,99921.22
2022-11-12T08:36:45.239Z,99923.22
2022-11-12T08:42:05.450Z,99921.09
2022-11-12T08:47:25.835Z,99924.63
2022-11-12T08:52:46.146Z,99917.28
2022-11-12T08:58:07.781Z,99915.41
2022-11-12T09:03:27.882Z,99918.00
2022-11-12T09:08:48.444Z,99913.13
2022-11-12T09:14:09.397Z,99920.66
2022-11-12T09:19:29.942Z,99910.94
2022-11-12T09:24:50.393Z,99911.00
2022-11-12T09:30:10.927Z,99913.25
2022-11-12T09:35:31.421Z,99901.50
2022-11-12T09:40:51.568Z,99907.81
2022-11-12T09:46:28.356Z,99901.28
2022-11-12T09:51:56.891Z,99913.91
2022-11-12T09:57:17.213Z,99899.09
2022-11-12T10:02:48.026Z,99904.44
2022-11-12T10:08:42.918Z,99906.50
2022-11-12T10:14:25.943Z,99908.84
2022-11-12T10:20:13.666Z,99915.28
2022-11-12T10:25:35.669Z,99911.84
2022-11-12T10:31:02.498Z,99899.94
2022-11-12T10:36:33.758Z,99908.69
2022-11-12T10:42:07.094Z,99898.81
2022-11-12T10:47:39.109Z,99907.59
2022-11-12T10:53:02.463Z,99908.16
2022-11-12T10:58:23.753Z,99895.94
2022-11-12T11:03:54.405Z,99904.03
2022-11-12T11:09:20.762Z,99916.22
2022-11-12T11:14:44.572Z,99915.13
2022-11-12T11:20:16.511Z,99908.81
2022-11-12T11:25:37.280Z,99907.88
2022-11-12T11:31:16.322Z,99915.53
2022-11-12T11:36:42.708Z,99900.75
2022-11-12T11:42:11.062Z,99909.09
2022-11-12T11:48:01.228Z,99888.66
2022-11-12T11:53:40.982Z,99886.88
2022-11-12T11:59:01.744Z,99882.50
2022-11-12T12:04:49.673Z,99882.50
2022-11-12T12:10:46.685Z,99875.78
2022-11-12T12:16:37.744Z,99872.63
2022-11-12T12:22:00.024Z,99860.16
2022-11-12T12:27:32.375Z,99859.34
2022-11-12T12:33:22.018Z,99850.69
2022-11-12T12:38:55.132Z,99851.25
2022-11-12T12:44:15.906Z,99853.72
2022-11-12T12:49:37.703Z,99847.41
2022-11-12T12:54:58.346Z,99848.25
2022-11-12T13:00:30.405Z,99837.97
2022-11-12T13:06:07.447Z,99842.63
2022-11-12T13:12:01.349Z,99834.94
2022-11-12T13:17:48.190Z,99844.53
2022-11-12T13:23:10.948Z,99843.72
2022-11-12T13:28:31.286Z,99843.72
2022-11-12T13:33:52.399Z,99837.69
2022-11-12T13:39:15.644Z,99839.59
2022-11-12T13:44:36.154Z,99833.03
2022-11-12T13:50:01.361Z,99830.00
2022-11-12T13:55:23.279Z,99833.00
2022-11-12T14:00:53.383Z,99832.47
2022-11-12T14:06:23.528Z,99828.63
2022-11-12T14:11:56.677Z,99817.91
2022-11-12T14:17:35.721Z,99823.66
2022-11-12T14:22:56.731Z,99821.59
2022-11-12T14:28:31.882Z,99815.41
2022-11-12T14:33:52.295Z,99815.25
2022-11-12T14:39:12.798Z,99804.81
2022-11-12T14:44:36.669Z,99799.56
2022-11-12T14:49:58.350Z,99800.47
2022-11-12T14:55:22.747Z,99797.97
2022-11-12T15:00:46.326Z,99808.47
2022-11-12T15:06:10.425Z,99807.59
2022-11-12T15:11:36.444Z,99805.19
2022-11-12T15:16:56.967Z,99812.25
2022-11-12T15:22:22.677Z,99822.56
2022-11-12T15:27:43.513Z,99806.94
2022-11-12T15:33:14.013Z,99808.38
2022-11-12T15:38:38.553Z,99808.06
2022-11-12T15:43:59.889Z,99810.59
2022-11-12T15:49:20.236Z,99807.78
2022-11-12T15:54:41.290Z,99804.97
2022-11-12T16:00:17.228Z,99805.50
2022-11-12T16:05:37.389Z,99800.81
2022-11-12T16:10:57.865Z,99802.97
2022-11-12T16:16:18.467Z,99796.50
2022-11-12T16:21:39.846Z,99792.47
2022-11-12T16:27:01.417Z,99799.66
2022-11-12T16:32:22.195Z,99800.97
2022-11-12T16:37:43.727Z,99791.78
2022-11-12T16:43:04.247Z,99794.75
2022-11-12T16:48:24.809Z,99794.28
2022-11-12T16:53:46.488Z,99782.63
2022-11-12T16:59:07.027Z,99775.91
2022-11-12T17:04:27.454Z,99785.69
2022-11-12T17:09:47.969Z,99772.16
2022-11-12T17:15:08.886Z,99769.81
2022-11-12T17:20:29.873Z,99767.47
2022-11-12T17:26:01.546Z,99771.09
2022-11-12T17:31:23.357Z,99764.50
2022-11-12T17:36:44.179Z,99768.41
2022-11-12T17:42:05.464Z,99765.13
2022-11-12T17:47:26.014Z,99758.53
2022-11-12T17:52:46.450Z,99756.88
2022-11-12T17:58:07.252Z,99765.59
2022-11-12T18:03:27.942Z,99769.25
2022-11-12T18:08:53.235Z,99760.88
2022-11-12T18:14:14.389Z,99753.47
2022-11-12T18:19:34.708Z,99769.38
2022-11-12T18:24:55.063Z,99770.53
2022-11-12T18:30:19.243Z,99762.19
2022-11-12T18:35:39.977Z,99752.88
2022-11-12T18:41:21.306Z,99746.16
2022-11-12T18:46:41.576Z,99763.84
2022-11-12T18:52:01.799Z,99752.16
2022-11-12T18:57:22.658Z,99751.47
2022-11-12T19:02:43.323Z,99747.34
2022-11-12T19:08:03.964Z,99740.88
2022-11-12T19:13:25.257Z,99731.69
2022-11-12T19:18:46.375Z,99735.44
2022-11-12T19:24:07.074Z,99736.72
2022-11-12T19:29:27.448Z,99743.91
2022-11-12T19:34:48.036Z,99752.25
2022-11-12T19:40:08.845Z,99746.47
2022-11-12T19:45:29.376Z,99746.81
2022-11-12T19:50:49.625Z,99744.34
2022-11-12T19:56:12.085Z,99764.44
2022-11-12T20:01:32.303Z,99752.69
2022-11-12T20:06:52.914Z,99746.91
2022-11-12T20:12:13.544Z,99740.31
2022-11-12T20:17:33.940Z,99732.06
2022-11-12T20:22:54.009Z,99735.59
2022-11-12T20:28:14.377Z,99737.47
2022-11-12T20:33:39.370Z,99733.34
2022-11-12T20:39:03.209Z,99726.63
2022-11-12T20:44:23.314Z,99720.75
2022-11-12T20:49:43.644Z,99721.69
2022-11-12T20:55:04.388Z,99720.97
2022-11-12T21:00:25.067Z,99722.03
2022-11-12T21:05:45.481Z,99723.78
2022-11-12T21:11:09.745Z,99704.84
2022-11-12T21:16:30.049Z,99699.69
2022-11-12T21:21:50.407Z,99695.63
2022-11-12T21:27:11.888Z,99704.66
2022-11-12T21:32:32.585Z,99694.06
2022-11-12T21:37:52.882Z,99698.75
2022-11-12T21:43:13.187Z,99698.25
2022-11-12T21:48:33.469Z,99696.13
2022-11-12T21:53:59.563Z,99699.16
2022-11-12T21:59:20.284Z,99693.69
2022-11-12T22:04:40.476Z,99694.97
2022-11-12T22:10:00.853Z,99701.41
2022-11-12T22:15:24.296Z,99695.63
2022-11-12T22:20:55.482Z,99678.78
2022-11-12T22:26:24.831Z,99674.78
2022-11-12T22:31:44.993Z,99670.78
2022-11-12T22:37:05.438Z,99659.72
2022-11-12T22:42:25.725Z,99652.91
2022-11-12T22:47:46.233Z,99642.78
2022-11-12T22:53:06.847Z,99651.47
2022-11-12T22:58:27.550Z,99640.53
2022-11-12T23:03:49.539Z,99640.66
2022-11-12T23:09:16.113Z,99639.00
2022-11-12T23:14:36.553Z,99645.09
2022-11-12T23:19:56.924Z,99642.94
2022-11-12T23:25:17.548Z,99635.53
2022-11-12T23:30:38.197Z,99629.66
2022-11-12T23:36:09.706Z,99623.03
2022-11-12T23:41:29.848Z,99626.16
2022-11-12T23:46:50.435Z,99624.00
2022-11-12T23:52:10.766Z,99610.50
2022-11-12T23:57:33.052Z,99615.97
